Time;durP1;ratioP1;P1;durP2;ratioP2;P2;SDS_P1;SDS_P2;PMS_P1;PMS_P2;Temp;Humidity;BMP_temperature;BMP_pressure;BME280_temperature;BME280_humidity;BME280_pressure;Samples;Min_cycle;Max_cycle;Signal;HPM_P1;HPM_P2
2023/08/29 00:00:17;;;;;;;11.35;8.77;;;;;;;;;;5025448;28;20212;-72
2023/08/29 00:02:42;;;;;;;12.15;8.40;;;;;;;;;;5022773;28;20206;-72
2023/08/29 00:05:09;;;;;;;10.00;8.48;;;;;;;;;;5027764;28;20194;-72
2023/08/29 00:07:35;;;;;;;11.00;8.85;;;;;;;;;;5023199;28;20190;-73
2023/08/29 00:10:01;;;;;;;11.80;9.32;;;;;;;;;;5023805;28;20202;-71
2023/08/29 00:12:26;;;;;;;11.40;8.77;;;;;;;;;;5022848;28;20863;-71
2023/08/29 00:14:52;;;;;;;10.18;9.07;;;;;;;;;;5020663;28;20187;-73
2023/08/29 00:17:18;;;;;;;11.80;9.57;;;;;;;;;;5027539;28;20308;-72
2023/08/29 00:19:43;;;;;;;10.43;8.50;;;;;;;;;;5028973;28;20707;-72
2023/08/29 00:22:09;;;;;;;12.68;9.52;;;;;;;;;;5013764;28;20309;-73
2023/08/29 00:24:34;;;;;;;10.85;9.05;;;;;;;;;;5020421;28;20237;-73
2023/08/29 00:27:00;;;;;;;10.75;9.20;;;;;;;;;;5027733;28;20190;-73
2023/08/29 00:29:26;;;;;;;11.38;9.32;;;;;;;;;;5029150;28;20251;-73
2023/08/29 00:31:52;;;;;;;12.02;10.10;;;;;;;;;;5027047;28;20190;-72
2023/08/29 00:34:17;;;;;;;12.27;9.57;;;;;;;;;;5028210;28;20231;-73
2023/08/29 00:36:43;;;;;;;11.32;9.88;;;;;;;;;;5025374;28;20276;-73
2023/08/29 00:39:08;;;;;;;15.52;10.77;;;;;;;;;;5017428;28;20190;-73
2023/08/29 00:41:34;;;;;;;13.80;10.50;;;;;;;;;;5011817;28;20378;-73
2023/08/29 00:43:59;;;;;;;14.55;11.10;;;;;;;;;;5024816;28;20233;-71
2023/08/29 00:46:25;;;;;;;13.88;10.60;;;;;;;;;;5028341;28;20573;-72
2023/08/29 00:48:51;;;;;;;12.82;10.30;;;;;;;;;;5018590;28;20197;-72
2023/08/29 00:51:17;;;;;;;17.27;9.70;;;;;;;;;;5007411;28;20191;-73
2023/08/29 00:53:43;;;;;;;13.75;9.90;;;;;;;;;;5023451;28;20863;-73
2023/08/29 00:56:09;;;;;;;13.75;10.18;;;;;;;;;;5030920;28;20277;-73
2023/08/29 00:58:36;;;;;;;11.32;10.13;;;;;;;;;;5016778;28;20193;-72
2023/08/29 01:01:02;;;;;;;16.80;10.35;;;;;;;;;;5027792;28;20218;-72
2023/08/29 01:03:28;;;;;;;14.65;10.70;;;;;;;;;;5027064;28;20279;-72
2023/08/29 01:05:53;;;;;;;14.48;10.75;;;;;;;;;;5033924;28;20625;-72
2023/08/29 01:08:18;;;;;;;14.65;11.30;;;;;;;;;;5026106;28;20288;-72
2023/08/29 01:11:06;;;;;;;19.55;12.02;;;;;;;;;;5032825;28;20186;-72
2023/08/29 01:14:06;;;;;;;15.07;11.07;;;;;;;;;;5033095;28;20261;-71
2023/08/29 01:16:37;;;;;;;16.13;11.38;;;;;;;;;;5020922;28;20696;-71
2023/08/29 01:19:11;;;;;;;15.10;11.73;;;;;;;;;;5021954;28;20201;-71
2023/08/29 01:21:49;;;;;;;14.05;11.25;;;;;;;;;;5028586;28;20324;-71
2023/08/29 01:24:30;;;;;;;13.20;11.02;;;;;;;;;;5021280;28;20206;-72
2023/08/29 01:26:56;;;;;;;14.02;11.48;;;;;;;;;;5029160;28;20443;-72
2023/08/29 01:29:23;;;;;;;16.90;10.80;;;;;;;;;;5022677;28;20201;-71
2023/08/29 01:31:50;;;;;;;13.30;10.73;;;;;;;;;;5030174;28;20194;-72
2023/08/29 01:34:16;;;;;;;17.70;10.68;;;;;;;;;;5029021;28;20190;-71
2023/08/29 01:36:42;;;;;;;15.70;10.73;;;;;;;;;;5029064;28;20308;-72
2023/08/29 01:39:08;;;;;;;16.15;9.95;;;;;;;;;;5027901;28;20217;-71
2023/08/29 01:41:34;;;;;;;13.10;10.50;;;;;;;;;;5032037;28;20217;-71
2023/08/29 01:44:02;;;;;;;16.75;10.40;;;;;;;;;;5029120;28;20250;-71
2023/08/29 01:46:28;;;;;;;12.32;10.20;;;;;;;;;;5032782;28;20187;-71
2023/08/29 01:48:53;;;;;;;14.02;10.35;;;;;;;;;;5022165;28;20193;-73
2023/08/29 01:51:19;;;;;;;16.00;9.50;;;;;;;;;;5032335;28;20190;-73
2023/08/29 01:53:44;;;;;;;13.60;9.10;;;;;;;;;;5029959;28;20174;-72
2023/08/29 01:56:12;;;;;;;13.02;9.15;;;;;;;;;;5032903;28;20191;-72
2023/08/29 01:58:39;;;;;;;12.10;9.98;;;;;;;;;;5028365;28;20182;-72
2023/08/29 02:01:04;;;;;;;14.27;9.32;;;;;;;;;;5022045;28;20209;-72
2023/08/29 02:03:30;;;;;;;12.30;8.95;;;;;;;;;;5022446;28;20657;-72
2023/08/29 02:05:55;;;;;;;12.23;9.55;;;;;;;;;;5031848;28;20194;-72
2023/08/29 02:08:21;;;;;;;15.50;9.60;;;;;;;;;;5013854;28;20190;-72
2023/08/29 02:10:47;;;;;;;17.60;10.40;;;;;;;;;;5034152;28;20654;-73
2023/08/29 02:13:12;;;;;;;13.13;9.40;;;;;;;;;;5029590;28;20606;-73
2023/08/29 02:15:37;;;;;;;13.05;9.30;;;;;;;;;;5037191;28;20212;-73
2023/08/29 02:18:03;;;;;;;14.52;8.80;;;;;;;;;;5028465;28;20293;-72
2023/08/29 02:20:28;;;;;;;15.50;9.32;;;;;;;;;;5032946;28;20559;-72
2023/08/29 02:22:54;;;;;;;13.52;8.65;;;;;;;;;;5030094;28;20206;-72
2023/08/29 02:25:19;;;;;;;9.95;8.45;;;;;;;;;;5031716;28;20213;-72
2023/08/29 02:27:45;;;;;;;12.10;9.02;;;;;;;;;;5027919;28;20187;-72
2023/08/29 02:30:10;;;;;;;12.40;9.02;;;;;;;;;;5025800;28;20201;-73
2023/08/29 02:32:38;;;;;;;12.52;8.68;;;;;;;;;;5028244;28;20622;-72
2023/08/29 02:35:03;;;;;;;13.35;8.20;;;;;;;;;;5047848;28;20210;-72
2023/08/29 02:37:29;;;;;;;11.52;7.57;;;;;;;;;;5029599;28;20634;-73
2023/08/29 02:39:54;;;;;;;11.65;7.70;;;;;;;;;;5027571;28;20630;-73
2023/08/29 02:42:20;;;;;;;12.07;7.28;;;;;;;;;;5032665;28;20711;-73
2023/08/29 02:44:45;;;;;;;11.55;7.75;;;;;;;;;;5024644;28;20266;-73
2023/08/29 02:47:10;;;;;;;8.95;7.65;;;;;;;;;;5025966;28;20194;-73
2023/08/29 02:49:36;;;;;;;10.20;7.63;;;;;;;;;;5015409;28;20704;-73
2023/08/29 02:52:01;;;;;;;11.95;6.75;;;;;;;;;;5022406;28;20198;-73
2023/08/29 02:54:27;;;;;;;9.18;7.20;;;;;;;;;;5025671;28;20186;-73
2023/08/29 02:56:52;;;;;;;13.30;6.93;;;;;;;;;;5031206;28;20269;-73
2023/08/29 02:59:18;;;;;;;8.60;6.53;;;;;;;;;;5020037;28;20709;-73
2023/08/29 03:01:43;;;;;;;11.40;7.15;;;;;;;;;;5027028;28;20604;-72
2023/08/29 03:04:08;;;;;;;9.40;6.90;;;;;;;;;;5008356;28;20214;-73
2023/08/29 03:06:34;;;;;;;13.35;7.57;;;;;;;;;;5032806;28;20277;-72
2023/08/29 03:08:59;;;;;;;11.45;8.30;;;;;;;;;;5028914;28;20190;-73
2023/08/29 03:11:24;;;;;;;11.27;7.90;;;;;;;;;;5030397;28;20553;-72
2023/08/29 03:13:50;;;;;;;9.52;7.53;;;;;;;;;;5031791;28;20194;-73
2023/08/29 03:16:17;;;;;;;10.70;7.38;;;;;;;;;;5024440;28;20191;-73
2023/08/29 03:18:42;;;;;;;12.02;7.70;;;;;;;;;;5012016;28;20287;-72
2023/08/29 03:21:08;;;;;;;11.48;7.63;;;;;;;;;;5028457;28;20223;-73
2023/08/29 03:23:35;;;;;;;10.07;7.32;;;;;;;;;;5022752;28;20214;-73
2023/08/29 03:26:09;;;;;;;14.13;7.88;;;;;;;;;;5032523;28;20553;-73
2023/08/29 03:28:36;;;;;;;8.38;6.75;;;;;;;;;;5024906;28;20288;-73
2023/08/29 03:31:12;;;;;;;10.15;7.68;;;;;;;;;;5031015;28;20261;-73
2023/08/29 03:33:42;;;;;;;14.30;7.63;;;;;;;;;;5030111;28;20186;-78
2023/08/29 03:36:08;;;;;;;12.13;7.45;;;;;;;;;;5030723;28;20186;-73
2023/08/29 03:38:35;;;;;;;14.43;7.60;;;;;;;;;;5031200;28;20198;-73
2023/08/29 03:41:02;;;;;;;10.23;7.18;;;;;;;;;;5028156;28;20229;-73
2023/08/29 03:43:27;;;;;;;9.77;7.47;;;;;;;;;;5022434;28;20569;-73
2023/08/29 03:46:06;;;;;;;13.50;7.60;;;;;;;;;;5026414;28;20278;-73
2023/08/29 03:48:32;;;;;;;12.57;7.63;;;;;;;;;;5026292;28;20615;-73
2023/08/29 03:50:58;;;;;;;9.68;7.50;;;;;;;;;;5023387;28;20213;-73
2023/08/29 03:53:24;;;;;;;13.32;7.43;;;;;;;;;;5010969;28;20214;-73
2023/08/29 03:55:49;;;;;;;12.98;7.95;;;;;;;;;;5023362;28;20676;-73
2023/08/29 03:58:15;;;;;;;10.70;7.70;;;;;;;;;;5031063;28;20221;-73
2023/08/29 04:00:42;;;;;;;14.13;7.75;;;;;;;;;;5011083;28;20186;-74
2023/08/29 04:03:07;;;;;;;9.32;7.40;;;;;;;;;;5025414;28;20200;-73
2023/08/29 04:05:35;;;;;;;12.77;7.80;;;;;;;;;;5025043;28;20649;-73
2023/08/29 04:08:01;;;;;;;12.75;7.45;;;;;;;;;;5030118;28;20704;-73
2023/08/29 04:10:27;;;;;;;9.98;7.30;;;;;;;;;;5010810;28;20573;-73
2023/08/29 04:12:52;;;;;;;9.52;7.47;;;;;;;;;;5008692;28;20182;-73
2023/08/29 04:15:18;;;;;;;11.57;8.43;;;;;;;;;;5019860;28;20202;-73
2023/08/29 04:17:44;;;;;;;9.27;7.22;;;;;;;;;;5022891;28;20210;-73
2023/08/29 04:20:12;;;;;;;11.93;7.75;;;;;;;;;;5027851;28;20688;-72
2023/08/29 04:22:38;;;;;;;11.50;8.05;;;;;;;;;;5015983;28;20191;-72
2023/08/29 04:25:08;;;;;;;15.57;8.43;;;;;;;;;;5031138;28;20236;-73
2023/08/29 04:27:34;;;;;;;11.80;8.30;;;;;;;;;;5031342;28;20263;-74
2023/08/29 04:29:59;;;;;;;11.93;8.60;;;;;;;;;;5027225;28;20186;-74
2023/08/29 04:32:25;;;;;;;12.48;8.65;;;;;;;;;;5018552;28;20287;-73
2023/08/29 04:34:50;;;;;;;14.20;8.23;;;;;;;;;;5030251;28;20228;-74
2023/08/29 04:37:16;;;;;;;14.18;8.82;;;;;;;;;;5010323;28;20611;-73
2023/08/29 04:39:42;;;;;;;13.77;10.27;;;;;;;;;;5024667;28;20266;-73
2023/08/29 04:42:07;;;;;;;18.73;11.18;;;;;;;;;;5027308;28;20197;-74
2023/08/29 04:44:33;;;;;;;15.82;11.52;;;;;;;;;;5027305;28;20321;-74
2023/08/29 04:47:00;;;;;;;16.55;11.07;;;;;;;;;;5029120;28;20285;-74
2023/08/29 04:49:25;;;;;;;15.27;10.63;;;;;;;;;;5027393;28;20270;-73
2023/08/29 04:51:51;;;;;;;20.50;11.55;;;;;;;;;;5005385;28;20229;-73
2023/08/29 04:54:16;;;;;;;15.68;10.73;;;;;;;;;;5026413;28;20244;-73
2023/08/29 04:56:42;;;;;;;15.10;9.65;;;;;;;;;;5027970;28;20232;-73
2023/08/29 04:59:07;;;;;;;13.00;9.82;;;;;;;;;;5027136;28;20776;-73
2023/08/29 05:01:33;;;;;;;14.48;9.95;;;;;;;;;;5030164;28;20242;-73
2023/08/29 05:03:58;;;;;;;17.30;10.52;;;;;;;;;;5025965;28;20214;-73
2023/08/29 05:06:25;;;;;;;14.95;10.35;;;;;;;;;;5025850;28;20307;-73
2023/08/29 05:08:50;;;;;;;15.30;9.35;;;;;;;;;;5027818;28;20576;-73
2023/08/29 05:11:16;;;;;;;14.10;10.02;;;;;;;;;;5030543;28;20182;-73
2023/08/29 05:13:41;;;;;;;12.93;9.95;;;;;;;;;;5030731;28;20623;-73
2023/08/29 05:16:06;;;;;;;18.10;11.98;;;;;;;;;;5028972;28;20194;-73
2023/08/29 05:18:32;;;;;;;17.90;11.38;;;;;;;;;;5029254;28;20229;-74
2023/08/29 05:20:57;;;;;;;12.55;9.30;;;;;;;;;;5028050;28;20205;-73
2023/08/29 05:23:23;;;;;;;12.85;9.15;;;;;;;;;;5023561;28;20206;-73
2023/08/29 05:25:49;;;;;;;18.85;9.80;;;;;;;;;;5028662;28;20194;-73
2023/08/29 05:28:14;;;;;;;14.85;10.40;;;;;;;;;;5027365;28;20565;-73
2023/08/29 05:30:40;;;;;;;16.63;10.18;;;;;;;;;;5030910;28;20190;-73
2023/08/29 05:33:05;;;;;;;13.02;10.40;;;;;;;;;;5028915;28;20210;-73
2023/08/29 05:35:31;;;;;;;15.07;10.57;;;;;;;;;;5021220;28;20213;-73
2023/08/29 05:37:56;;;;;;;14.60;9.77;;;;;;;;;;5015520;28;20190;-73
2023/08/29 05:40:22;;;;;;;12.18;9.25;;;;;;;;;;5030563;28;20202;-73
2023/08/29 05:42:47;;;;;;;15.40;9.90;;;;;;;;;;5005782;28;20207;-73
2023/08/29 05:45:13;;;;;;;11.63;10.23;;;;;;;;;;5029650;28;20252;-73
2023/08/29 05:47:38;;;;;;;13.27;10.10;;;;;;;;;;5035370;28;20209;-73
2023/08/29 05:50:04;;;;;;;14.00;10.48;;;;;;;;;;5030088;28;20280;-73
2023/08/29 05:52:29;;;;;;;16.30;10.30;;;;;;;;;;5032430;28;20535;-73
2023/08/29 05:54:55;;;;;;;15.18;10.15;;;;;;;;;;5030759;28;20186;-73
2023/08/29 05:57:21;;;;;;;17.25;10.90;;;;;;;;;;5033630;28;20225;-73
2023/08/29 05:59:46;;;;;;;13.93;10.40;;;;;;;;;;5029497;28;20307;-73
2023/08/29 06:02:12;;;;;;;14.52;10.48;;;;;;;;;;5015622;28;20197;-73
2023/08/29 06:04:37;;;;;;;14.75;10.48;;;;;;;;;;5022348;28;20375;-73
2023/08/29 06:07:04;;;;;;;13.38;10.63;;;;;;;;;;5028746;28;20206;-73
2023/08/29 06:09:31;;;;;;;17.35;10.10;;;;;;;;;;5024490;28;20783;-73
2023/08/29 06:11:56;;;;;;;14.98;10.93;;;;;;;;;;5027755;28;20685;-72
2023/08/29 06:14:21;;;;;;;17.50;11.55;;;;;;;;;;5028465;28;20304;-72
2023/08/29 06:16:47;;;;;;;16.23;11.55;;;;;;;;;;5024896;28;20209;-72
2023/08/29 06:19:12;;;;;;;17.50;11.55;;;;;;;;;;5027368;28;20187;-72
2023/08/29 06:21:38;;;;;;;17.00;11.77;;;;;;;;;;5042381;28;20198;-72
2023/08/29 06:24:04;;;;;;;15.00;11.60;;;;;;;;;;5030814;28;20214;-71
2023/08/29 06:26:30;;;;;;;15.15;11.82;;;;;;;;;;5031305;28;20198;-72
2023/08/29 06:28:55;;;;;;;16.65;12.07;;;;;;;;;;5024949;28;20225;-73
2023/08/29 06:31:21;;;;;;;20.40;11.60;;;;;;;;;;5020231;28;20190;-73
2023/08/29 06:33:46;;;;;;;16.17;12.13;;;;;;;;;;5033760;28;20186;-73
2023/08/29 06:36:11;;;;;;;17.58;11.25;;;;;;;;;;5026640;28;20225;-73
2023/08/29 06:38:37;;;;;;;17.15;11.65;;;;;;;;;;5043226;28;20202;-73
2023/08/29 06:41:04;;;;;;;17.52;11.32;;;;;;;;;;5014567;28;20654;-73
2023/08/29 06:43:30;;;;;;;19.77;12.00;;;;;;;;;;5033902;28;20705;-73
2023/08/29 06:45:55;;;;;;;13.90;11.07;;;;;;;;;;5028994;28;20282;-73
2023/08/29 06:48:21;;;;;;;20.35;12.73;;;;;;;;;;5026782;28;20213;-72
2023/08/29 06:50:46;;;;;;;16.60;11.50;;;;;;;;;;5027342;28;20249;-73
2023/08/29 06:53:12;;;;;;;14.90;11.82;;;;;;;;;;5026433;28;20281;-72
2023/08/29 06:55:37;;;;;;;18.98;11.15;;;;;;;;;;5025082;28;20503;-72
2023/08/29 06:58:07;;;;;;;18.77;12.65;;;;;;;;;;5030211;28;20579;-72
2023/08/29 07:00:33;;;;;;;19.80;11.50;;;;;;;;;;5029742;28;20277;-72
2023/08/29 07:02:59;;;;;;;16.38;11.93;;;;;;;;;;5028853;28;20198;-72
2023/08/29 07:05:24;;;;;;;15.05;12.13;;;;;;;;;;5023881;28;20226;-72
2023/08/29 07:07:50;;;;;;;18.40;12.48;;;;;;;;;;5025450;28;20205;-72
2023/08/29 07:10:16;;;;;;;15.93;11.60;;;;;;;;;;5023452;28;20537;-72
2023/08/29 07:12:42;;;;;;;17.85;12.30;;;;;;;;;;5027070;28;20209;-73
2023/08/29 07:15:08;;;;;;;17.95;12.35;;;;;;;;;;5024441;28;20608;-72
2023/08/29 07:17:33;;;;;;;16.30;12.50;;;;;;;;;;5029695;28;20237;-72
2023/08/29 07:19:59;;;;;;;17.02;13.07;;;;;;;;;;5025157;28;20191;-72
2023/08/29 07:22:24;;;;;;;19.55;13.07;;;;;;;;;;5026249;28;20299;-72
2023/08/29 07:24:50;;;;;;;17.77;12.88;;;;;;;;;;5029223;28;20214;-72
2023/08/29 07:27:15;;;;;;;19.30;12.70;;;;;;;;;;5013209;28;20709;-73
2023/08/29 07:29:41;;;;;;;18.80;12.23;;;;;;;;;;5027733;28;20213;-73
2023/08/29 07:32:07;;;;;;;18.52;12.13;;;;;;;;;;5028855;28;20194;-73
2023/08/29 07:34:32;;;;;;;18.60;12.73;;;;;;;;;;5030280;28;20213;-72
2023/08/29 07:36:57;;;;;;;16.75;12.30;;;;;;;;;;5029970;28;20179;-72
2023/08/29 07:39:24;;;;;;;16.38;11.93;;;;;;;;;;5029803;28;20190;-72
2023/08/29 07:41:50;;;;;;;14.95;10.75;;;;;;;;;;5025105;28;20200;-73
2023/08/29 07:44:15;;;;;;;18.33;11.73;;;;;;;;;;5031596;28;20237;-72
2023/08/29 07:46:41;;;;;;;16.08;11.05;;;;;;;;;;5012237;28;20189;-72
2023/08/29 07:49:13;;;;;;;15.70;10.43;;;;;;;;;;5018152;28;20230;-72
2023/08/29 07:51:40;;;;;;;17.52;10.60;;;;;;;;;;5020672;28;20202;-72
2023/08/29 07:54:05;;;;;;;15.40;10.27;;;;;;;;;;5029392;28;20241;-72
2023/08/29 07:56:30;;;;;;;12.10;8.35;;;;;;;;;;5003590;28;20198;-72
2023/08/29 07:58:56;;;;;;;9.30;7.57;;;;;;;;;;5026471;28;20209;-71
2023/08/29 08:01:21;;;;;;;10.38;6.55;;;;;;;;;;5027100;28;20292;-72
2023/08/29 08:03:47;;;;;;;9.35;5.80;;;;;;;;;;5028257;28;20213;-73
2023/08/29 08:06:12;;;;;;;8.43;5.93;;;;;;;;;;5027221;28;20302;-72
2023/08/29 08:08:37;;;;;;;9.27;6.32;;;;;;;;;;5026722;28;20186;-72
2023/08/29 08:11:04;;;;;;;10.00;6.15;;;;;;;;;;5025438;28;20546;-72
2023/08/29 08:13:31;;;;;;;11.52;5.97;;;;;;;;;;5021637;28;20186;-73
2023/08/29 08:15:56;;;;;;;8.75;5.70;;;;;;;;;;5006522;28;20223;-72
2023/08/29 08:18:22;;;;;;;8.02;5.90;;;;;;;;;;5027540;28;20287;-73
2023/08/29 08:20:47;;;;;;;8.00;5.22;;;;;;;;;;5029514;28;20183;-72
2023/08/29 08:23:13;;;;;;;5.97;4.60;;;;;;;;;;5029835;28;20572;-73
2023/08/29 08:25:38;;;;;;;8.45;4.38;;;;;;;;;;5020048;28;20226;-72
2023/08/29 08:28:06;;;;;;;6.85;5.05;;;;;;;;;;5028478;28;20840;-72
2023/08/29 08:30:31;;;;;;;8.60;4.60;;;;;;;;;;5025912;28;20508;-73
2023/08/29 08:32:57;;;;;;;7.70;4.60;;;;;;;;;;5023550;28;20193;-73
2023/08/29 08:35:22;;;;;;;6.50;3.63;;;;;;;;;;5028998;28;20273;-73
2023/08/29 08:37:48;;;;;;;6.28;2.88;;;;;;;;;;5030144;28;20212;-73
2023/08/29 08:40:15;;;;;;;3.72;1.92;;;;;;;;;;5029794;28;20189;-73
2023/08/29 08:42:40;;;;;;;6.03;2.90;;;;;;;;;;5026598;28;20194;-73
2023/08/29 08:45:07;;;;;;;5.07;2.45;;;;;;;;;;5017658;28;20738;-73
2023/08/29 08:47:36;;;;;;;5.18;2.30;;;;;;;;;;5023558;28;20194;-73
2023/08/29 08:50:03;;;;;;;4.50;1.98;;;;;;;;;;5025015;28;20553;-74
2023/08/29 08:52:33;;;;;;;6.32;2.50;;;;;;;;;;5026896;28;20654;-74
2023/08/29 08:54:58;;;;;;;4.38;2.20;;;;;;;;;;5027108;28;20619;-74
2023/08/29 08:57:24;;;;;;;3.70;2.25;;;;;;;;;;5016438;28;20269;-73
2023/08/29 08:59:50;;;;;;;4.35;2.40;;;;;;;;;;5026317;28;20202;-73
2023/08/29 09:02:18;;;;;;;6.70;2.50;;;;;;;;;;5023006;28;20202;-73
2023/08/29 09:04:43;;;;;;;6.75;1.83;;;;;;;;;;5040652;28;20248;-72
2023/08/29 09:07:09;;;;;;;6.32;2.55;;;;;;;;;;5025069;28;20271;-73
2023/08/29 09:09:35;;;;;;;5.32;2.17;;;;;;;;;;5025809;28;20565;-73
2023/08/29 09:12:00;;;;;;;4.13;1.55;;;;;;;;;;5029682;28;20197;-72
2023/08/29 09:14:26;;;;;;;4.25;1.50;;;;;;;;;;5021507;28;20201;-72
2023/08/29 09:16:59;;;;;;;4.10;1.20;;;;;;;;;;5023885;28;20265;-74
2023/08/29 09:19:29;;;;;;;3.22;1.48;;;;;;;;;;5022781;28;20284;-73
2023/08/29 09:21:55;;;;;;;5.38;1.02;;;;;;;;;;5028708;28;20186;-73
2023/08/29 09:24:34;;;;;;;5.60;0.88;;;;;;;;;;5028086;28;20314;-73
2023/08/29 09:27:06;;;;;;;2.83;1.00;;;;;;;;;;5017141;28;20194;-74
2023/08/29 09:29:33;;;;;;;2.45;1.00;;;;;;;;;;5019927;28;20581;-74
2023/08/29 09:31:59;;;;;;;3.15;1.20;;;;;;;;;;5012864;28;20205;-74
2023/08/29 09:34:31;;;;;;;4.47;1.10;;;;;;;;;;5034167;28;20191;-73
2023/08/29 09:36:58;;;;;;;2.10;1.17;;;;;;;;;;4996984;28;20267;-73
2023/08/29 09:39:24;;;;;;;4.15;1.27;;;;;;;;;;5013450;28;20191;-74
2023/08/29 09:42:07;;;;;;;5.75;0.98;;;;;;;;;;5025725;28;20587;-74
2023/08/29 09:44:38;;;;;;;1.52;0.80;;;;;;;;;;5035211;28;20794;-74
2023/08/29 09:47:05;;;;;;;1.67;0.80;;;;;;;;;;5031070;28;20190;-74
2023/08/29 09:49:41;;;;;;;3.60;0.90;;;;;;;;;;5026665;28;20621;-74
2023/08/29 09:52:08;;;;;;;4.35;0.93;;;;;;;;;;5004244;28;20534;-74
2023/08/29 09:54:35;;;;;;;2.40;0.98;;;;;;;;;;5029023;28;20205;-72
2023/08/29 09:57:05;;;;;;;2.33;0.65;;;;;;;;;;5033280;28;20190;-73
2023/08/29 09:59:33;;;;;;;0.77;0.63;;;;;;;;;;5035418;28;20192;-73
2023/08/29 10:02:00;;;;;;;1.95;0.75;;;;;;;;;;5033339;28;20200;-73
2023/08/29 10:04:28;;;;;;;1.95;0.52;;;;;;;;;;5033720;28;20225;-74
2023/08/29 10:06:56;;;;;;;2.15;0.93;;;;;;;;;;5031473;28;20288;-74
2023/08/29 10:09:25;;;;;;;3.00;0.80;;;;;;;;;;5030280;28;20471;-73
2023/08/29 10:11:52;;;;;;;1.52;0.80;;;;;;;;;;5028725;28;20186;-74
2023/08/29 10:14:18;;;;;;;1.95;0.80;;;;;;;;;;5029837;28;20615;-74
2023/08/29 10:16:45;;;;;;;1.95;0.60;;;;;;;;;;5027522;28;20786;-73
2023/08/29 10:19:12;;;;;;;2.63;0.70;;;;;;;;;;5028683;28;20650;-74
2023/08/29 10:21:37;;;;;;;0.98;0.50;;;;;;;;;;5017356;28;20191;-73
2023/08/29 10:24:03;;;;;;;2.75;0.80;;;;;;;;;;5011702;28;20256;-74
2023/08/29 10:26:29;;;;;;;1.70;0.60;;;;;;;;;;5030944;28;20190;-74
2023/08/29 10:28:56;;;;;;;1.40;0.60;;;;;;;;;;5032911;28;20720;-74
2023/08/29 10:31:22;;;;;;;3.17;0.70;;;;;;;;;;5026305;28;20191;-74
2023/08/29 10:33:47;;;;;;;1.23;0.50;;;;;;;;;;5033973;28;20625;-74
2023/08/29 10:36:13;;;;;;;1.75;0.30;;;;;;;;;;5028396;28;20183;-75
2023/08/29 10:38:40;;;;;;;1.48;0.47;;;;;;;;;;5014474;28;20275;-74
2023/08/29 10:41:06;;;;;;;1.42;0.70;;;;;;;;;;5031079;28;20214;-74
2023/08/29 10:43:32;;;;;;;1.13;0.57;;;;;;;;;;5011468;28;20213;-75
2023/08/29 10:46:12;;;;;;;2.03;0.63;;;;;;;;;;5022269;28;20735;-75
2023/08/29 10:48:44;;;;;;;0.68;0.50;;;;;;;;;;5022501;28;20269;-75
2023/08/29 10:51:19;;;;;;;2.83;0.50;;;;;;;;;;5029096;28;20736;-75
2023/08/29 10:53:53;;;;;;;3.22;0.45;;;;;;;;;;5039011;28;20182;-75
2023/08/29 10:56:20;;;;;;;2.42;0.38;;;;;;;;;;5027559;28;20536;-75
2023/08/29 10:58:50;;;;;;;0.73;0.60;;;;;;;;;;5023283;28;20182;-75
2023/08/29 11:01:26;;;;;;;1.02;0.57;;;;;;;;;;5011023;28;20186;-75
2023/08/29 11:03:52;;;;;;;1.63;0.45;;;;;;;;;;5024736;28;20271;-76
2023/08/29 11:06:22;;;;;;;1.27;0.40;;;;;;;;;;5028778;28;20553;-75
2023/08/29 11:08:48;;;;;;;1.27;0.65;;;;;;;;;;5030325;28;20186;-75
2023/08/29 11:11:14;;;;;;;1.90;0.57;;;;;;;;;;5007940;28;20238;-75
2023/08/29 11:14:03;;;;;;;0.80;0.60;;;;;;;;;;5029517;28;20205;-75
2023/08/29 11:16:36;;;;;;;1.73;0.55;;;;;;;;;;5022709;28;20203;-75
2023/08/29 11:19:05;;;;;;;2.47;0.57;;;;;;;;;;5032811;28;20630;-75
2023/08/29 11:21:31;;;;;;;6.55;1.17;;;;;;;;;;5029607;28;20202;-75
2023/08/29 11:23:58;;;;;;;0.90;0.68;;;;;;;;;;5031335;28;20351;-75
2023/08/29 11:26:24;;;;;;;3.33;0.63;;;;;;;;;;5027310;28;20198;-73
2023/08/29 11:28:49;;;;;;;2.38;0.57;;;;;;;;;;5030948;28;20538;-74
2023/08/29 11:31:18;;;;;;;2.70;0.60;;;;;;;;;;5030663;28;20248;-74
2023/08/29 11:33:46;;;;;;;2.22;0.82;;;;;;;;;;5019115;28;20182;-74
2023/08/29 11:36:12;;;;;;;2.95;0.70;;;;;;;;;;5028270;28;20229;-74
2023/08/29 11:38:37;;;;;;;2.53;0.90;;;;;;;;;;5014738;28;20213;-74
2023/08/29 11:41:06;;;;;;;1.15;0.70;;;;;;;;;;5032609;28;20293;-74
2023/08/29 11:43:33;;;;;;;2.42;0.77;;;;;;;;;;5009621;28;20213;-74
2023/08/29 11:46:01;;;;;;;2.10;0.70;;;;;;;;;;5021769;28;20252;-72
2023/08/29 11:48:28;;;;;;;1.58;0.50;;;;;;;;;;5018370;28;20198;-73
2023/08/29 11:51:02;;;;;;;1.77;0.85;;;;;;;;;;5026099;28;20194;-74
2023/08/29 11:53:36;;;;;;;1.30;0.57;;;;;;;;;;5024578;28;20658;-74
2023/08/29 11:56:08;;;;;;;1.02;0.80;;;;;;;;;;5028647;28;20201;-73
2023/08/29 11:58:36;;;;;;;1.80;0.70;;;;;;;;;;5026144;28;20304;-74
2023/08/29 12:01:03;;;;;;;4.03;0.60;;;;;;;;;;5029896;28;20229;-74
2023/08/29 12:03:29;;;;;;;1.30;0.98;;;;;;;;;;5028178;28;20343;-74
2023/08/29 12:05:57;;;;;;;1.42;1.00;;;;;;;;;;5026879;28;20675;-74
2023/08/29 12:08:34;;;;;;;3.13;1.00;;;;;;;;;;5006226;28;20186;-74
2023/08/29 12:10:59;;;;;;;3.17;1.15;;;;;;;;;;5028522;28;20245;-74
2023/08/29 12:13:25;;;;;;;4.65;1.20;;;;;;;;;;5029698;28;20489;-72
2023/08/29 12:15:50;;;;;;;1.42;1.17;;;;;;;;;;5026895;28;20190;-73
2023/08/29 12:18:24;;;;;;;2.60;1.13;;;;;;;;;;5010169;28;20819;-73
2023/08/29 12:20:49;;;;;;;5.30;1.30;;;;;;;;;;5028036;28;20335;-75
2023/08/29 12:23:26;;;;;;;2.47;0.93;;;;;;;;;;5024133;28;20285;-74
2023/08/29 12:25:53;;;;;;;2.92;1.20;;;;;;;;;;5028136;28;20185;-75
2023/08/29 12:28:19;;;;;;;2.85;1.45;;;;;;;;;;5018068;28;20190;-73
2023/08/29 12:30:44;;;;;;;4.53;1.30;;;;;;;;;;5026404;28;20202;-73
2023/08/29 12:33:09;;;;;;;4.93;0.80;;;;;;;;;;5024611;28;20189;-74
2023/08/29 12:35:37;;;;;;;3.10;1.00;;;;;;;;;;5007391;28;20299;-75
2023/08/29 12:38:02;;;;;;;4.28;1.00;;;;;;;;;;5025039;28;20649;-75
2023/08/29 12:40:28;;;;;;;3.03;0.88;;;;;;;;;;5018022;28;20194;-75
2023/08/29 12:42:53;;;;;;;1.90;0.80;;;;;;;;;;5006276;28;20659;-73
2023/08/29 12:45:19;;;;;;;1.27;0.70;;;;;;;;;;5021381;28;20252;-72
2023/08/29 12:47:47;;;;;;;2.78;0.70;;;;;;;;;;5021911;28;20194;-73
2023/08/29 12:50:13;;;;;;;0.65;0.63;;;;;;;;;;5018898;28;20194;-73
2023/08/29 12:52:38;;;;;;;1.38;0.93;;;;;;;;;;5018275;28;20190;-73
2023/08/29 12:55:04;;;;;;;2.08;0.70;;;;;;;;;;5017279;28;20201;-71
2023/08/29 12:57:29;;;;;;;1.10;0.50;;;;;;;;;;5020329;28;20503;-72
2023/08/29 12:59:55;;;;;;;1.50;0.60;;;;;;;;;;5021258;28;20244;-73
2023/08/29 13:02:21;;;;;;;0.52;0.50;;;;;;;;;;5021722;28;20213;-73
2023/08/29 13:04:47;;;;;;;1.60;0.50;;;;;;;;;;5014657;28;20691;-73
2023/08/29 13:07:12;;;;;;;0.93;0.60;;;;;;;;;;5015107;28;20190;-73
2023/08/29 13:09:40;;;;;;;0.77;0.68;;;;;;;;;;5016581;28;20561;-74
2023/08/29 13:12:07;;;;;;;0.93;0.40;;;;;;;;;;5016267;28;20249;-72
2023/08/29 13:14:33;;;;;;;0.65;0.30;;;;;;;;;;5025666;28;20186;-73
2023/08/29 13:16:59;;;;;;;2.13;0.60;;;;;;;;;;5022624;28;20716;-74
2023/08/29 13:19:25;;;;;;;1.50;0.50;;;;;;;;;;5023067;28;20225;-74
2023/08/29 13:21:51;;;;;;;1.85;0.50;;;;;;;;;;5027872;28;20225;-72
2023/08/29 13:24:18;;;;;;;1.67;0.50;;;;;;;;;;5026652;28;20245;-73
2023/08/29 13:26:44;;;;;;;1.45;0.47;;;;;;;;;;5030143;28;20805;-73
2023/08/29 13:29:09;;;;;;;1.67;0.63;;;;;;;;;;5025009;28;20654;-74
2023/08/29 13:31:34;;;;;;;1.13;0.75;;;;;;;;;;5019885;28;20224;-72
2023/08/29 13:34:00;;;;;;;1.73;0.60;;;;;;;;;;4996443;28;20591;-73
2023/08/29 13:36:25;;;;;;;2.20;0.60;;;;;;;;;;5016760;28;20252;-73
2023/08/29 13:38:50;;;;;;;1.08;0.60;;;;;;;;;;5018414;28;20187;-74
2023/08/29 13:41:16;;;;;;;1.10;0.57;;;;;;;;;;5016244;28;20189;-72
2023/08/29 13:43:41;;;;;;;1.77;0.60;;;;;;;;;;5002657;28;20657;-73
2023/08/29 13:46:07;;;;;;;1.85;0.80;;;;;;;;;;5015426;28;20190;-73
2023/08/29 13:48:32;;;;;;;2.47;0.90;;;;;;;;;;5014012;28;20202;-72
2023/08/29 13:50:58;;;;;;;0.52;0.50;;;;;;;;;;5018912;28;20198;-73
2023/08/29 13:53:24;;;;;;;1.00;0.55;;;;;;;;;;5020350;28;20319;-73
2023/08/29 13:55:50;;;;;;;0.88;0.60;;;;;;;;;;5020564;28;20269;-73
2023/08/29 13:58:15;;;;;;;1.27;0.63;;;;;;;;;;5022663;28;20220;-73
2023/08/29 14:00:40;;;;;;;1.20;0.80;;;;;;;;;;5022107;28;20186;-73
2023/08/29 14:03:06;;;;;;;4.70;0.70;;;;;;;;;;5022207;28;20186;-72
2023/08/29 14:05:32;;;;;;;0.70;0.70;;;;;;;;;;5004540;28;20673;-73
2023/08/29 14:07:58;;;;;;;2.83;1.20;;;;;;;;;;5021751;28;20221;-72
2023/08/29 14:10:23;;;;;;;1.50;0.85;;;;;;;;;;5020538;28;20510;-73
2023/08/29 14:12:49;;;;;;;1.75;0.90;;;;;;;;;;5023279;28;20720;-73
2023/08/29 14:15:14;;;;;;;3.08;1.38;;;;;;;;;;5007027;28;20188;-73
2023/08/29 14:17:40;;;;;;;1.00;0.90;;;;;;;;;;5024097;28;20206;-73
2023/08/29 14:20:06;;;;;;;1.60;0.90;;;;;;;;;;5025495;28;20281;-73
2023/08/29 14:22:32;;;;;;;1.35;0.90;;;;;;;;;;5004246;28;20634;-72
2023/08/29 14:24:59;;;;;;;1.58;1.10;;;;;;;;;;5020800;28;20206;-73
2023/08/29 14:27:25;;;;;;;2.28;0.98;;;;;;;;;;5020160;28;20684;-73
2023/08/29 14:29:50;;;;;;;2.40;1.30;;;;;;;;;;5015630;28;20198;-73